sensor_id;sensor_type;location;lat;lon;timestamp;P1;durP1;ratioP1;P2;durP2;ratioP2
59167;SDS011;44948;55.046;73.266;2023-04-05T00:00:40;10.15;;;3.00;;
59167;SDS011;44948;55.046;73.266;2023-04-05T00:03:45;12.65;;;3.25;;
59167;SDS011;44948;55.046;73.266;2023-04-05T00:06:57;8.27;;;2.92;;
59167;SDS011;44948;55.046;73.266;2023-04-05T00:10:03;6.20;;;2.90;;
59167;SDS011;44948;55.046;73.266;2023-04-05T00:16:22;14.65;;;3.92;;
59167;SDS011;44948;55.046;73.266;2023-04-05T00:19:24;12.17;;;3.57;;
59167;SDS011;44948;55.046;73.266;2023-04-05T00:22:26;13.02;;;3.75;;
59167;SDS011;44948;55.046;73.266;2023-04-05T00:25:32;8.65;;;3.47;;
59167;SDS011;44948;55.046;73.266;2023-04-05T00:28:39;17.27;;;4.47;;
59167;SDS011;44948;55.046;73.266;2023-04-05T00:31:41;11.48;;;3.45;;
59167;SDS011;44948;55.046;73.266;2023-04-05T00:34:43;10.60;;;3.53;;
59167;SDS011;44948;55.046;73.266;2023-04-05T00:38:19;28.27;;;4.22;;
59167;SDS011;44948;55.046;73.266;2023-04-05T00:41:21;13.02;;;3.88;;
59167;SDS011;44948;55.046;73.266;2023-04-05T00:44:24;12.13;;;4.93;;
59167;SDS011;44948;55.046;73.266;2023-04-05T00:47:32;14.30;;;4.65;;
59167;SDS011;44948;55.046;73.266;2023-04-05T00:50:34;9.57;;;4.37;;
59167;SDS011;44948;55.046;73.266;2023-04-05T00:53:37;11.00;;;4.40;;
59167;SDS011;44948;55.046;73.266;2023-04-05T00:56:41;18.85;;;6.25;;
59167;SDS011;44948;55.046;73.266;2023-04-05T00:59:44;15.13;;;4.93;;
59167;SDS011;44948;55.046;73.266;2023-04-05T01:10:00;14.15;;;4.35;;
59167;SDS011;44948;55.046;73.266;2023-04-05T01:16:23;18.98;;;4.90;;
59167;SDS011;44948;55.046;73.266;2023-04-05T01:19:27;20.40;;;4.95;;
59167;SDS011;44948;55.046;73.266;2023-04-05T01:29:50;12.48;;;4.80;;
59167;SDS011;44948;55.046;73.266;2023-04-05T01:39:44;22.20;;;5.78;;
59167;SDS011;44948;55.046;73.266;2023-04-05T01:46:22;16.63;;;5.28;;
59167;SDS011;44948;55.046;73.266;2023-04-05T01:49:25;18.80;;;5.70;;
59167;SDS011;44948;55.046;73.266;2023-04-05T01:52:27;22.52;;;5.85;;
59167;SDS011;44948;55.046;73.266;2023-04-05T01:55:29;16.92;;;5.43;;
59167;SDS011;44948;55.046;73.266;2023-04-05T01:58:32;11.93;;;5.43;;
59167;SDS011;44948;55.046;73.266;2023-04-05T02:01:37;23.13;;;6.32;;
59167;SDS011;44948;55.046;73.266;2023-04-05T02:04:39;16.98;;;6.22;;
59167;SDS011;44948;55.046;73.266;2023-04-05T02:08:19;18.95;;;5.32;;
59167;SDS011;44948;55.046;73.266;2023-04-05T02:11:23;21.73;;;6.22;;
59167;SDS011;44948;55.046;73.266;2023-04-05T02:14:25;27.17;;;6.30;;
59167;SDS011;44948;55.046;73.266;2023-04-05T02:17:31;23.35;;;5.65;;
59167;SDS011;44948;55.046;73.266;2023-04-05T02:20:42;18.15;;;5.75;;
59167;SDS011;44948;55.046;73.266;2023-04-05T02:23:45;16.55;;;5.38;;
59167;SDS011;44948;55.046;73.266;2023-04-05T02:26:49;22.23;;;5.50;;
59167;SDS011;44948;55.046;73.266;2023-04-05T02:29:54;16.20;;;6.00;;
59167;SDS011;44948;55.046;73.266;2023-04-05T02:33:19;15.50;;;5.80;;
59167;SDS011;44948;55.046;73.266;2023-04-05T02:36:28;17.92;;;6.18;;
59167;SDS011;44948;55.046;73.266;2023-04-05T02:39:40;15.80;;;5.90;;
59167;SDS011;44948;55.046;73.266;2023-04-05T02:43:20;20.70;;;5.63;;
59167;SDS011;44948;55.046;73.266;2023-04-05T02:46:24;19.42;;;4.93;;
59167;SDS011;44948;55.046;73.266;2023-04-05T02:49:31;23.30;;;6.07;;
59167;SDS011;44948;55.046;73.266;2023-04-05T02:53:22;16.58;;;6.09;;
59167;SDS011;44948;55.046;73.266;2023-04-05T02:56:30;27.80;;;5.65;;
59167;SDS011;44948;55.046;73.266;2023-04-05T02:59:39;15.73;;;5.38;;
59167;SDS011;44948;55.046;73.266;2023-04-05T03:03:19;16.08;;;5.22;;
59167;SDS011;44948;55.046;73.266;2023-04-05T03:06:22;30.63;;;6.15;;
59167;SDS011;44948;55.046;73.266;2023-04-05T03:09:34;20.73;;;5.72;;
59167;SDS011;44948;55.046;73.266;2023-04-05T03:13:20;14.75;;;4.97;;
59167;SDS011;44948;55.046;73.266;2023-04-05T03:16:27;16.80;;;5.45;;
59167;SDS011;44948;55.046;73.266;2023-04-05T03:19:32;34.75;;;6.65;;
